sensor_id;sensor_type;location;lat;lon;timestamp;P1;durP1;ratioP1;P2;durP2;ratioP2
18455;SDS011;9357;49.900;8.208;2022-10-16T00:00:26;1.83;;;1.70;;
18455;SDS011;9357;49.900;8.208;2022-10-16T00:01:58;2.60;;;1.93;;
18455;SDS011;9357;49.900;8.208;2022-10-16T00:03:31;3.17;;;1.80;;
18455;SDS011;9357;49.900;8.208;2022-10-16T00:05:03;1.60;;;1.50;;
18455;SDS011;9357;49.900;8.208;2022-10-16T00:06:37;5.30;;;1.60;;
18455;SDS011;9357;49.900;8.208;2022-10-16T00:08:10;2.60;;;1.67;;
18455;SDS011;9357;49.900;8.208;2022-10-16T00:09:44;1.60;;;1.50;;
18455;SDS011;9357;49.900;8.208;2022-10-16T00:11:18;1.80;;;1.70;;
18455;SDS011;9357;49.900;8.208;2022-10-16T00:12:52;2.70;;;1.70;;
18455;SDS011;9357;49.900;8.208;2022-10-16T00:14:25;2.90;;;1.90;;
18455;SDS011;9357;49.900;8.208;2022-10-16T00:15:59;1.70;;;1.60;;
18455;SDS011;9357;49.900;8.208;2022-10-16T00:17:33;3.70;;;1.70;;
18455;SDS011;9357;49.900;8.208;2022-10-16T00:19:05;3.63;;;1.70;;
18455;SDS011;9357;49.900;8.208;2022-10-16T00:20:38;1.80;;;1.70;;
18455;SDS011;9357;49.900;8.208;2022-10-16T00:22:10;1.83;;;1.60;;
18455;SDS011;9357;49.900;8.208;2022-10-16T00:23:43;1.80;;;1.70;;
18455;SDS011;9357;49.900;8.208;2022-10-16T00:25:16;1.87;;;1.77;;
18455;SDS011;9357;49.900;8.208;2022-10-16T00:26:49;1.60;;;1.57;;
18455;SDS011;9357;49.900;8.208;2022-10-16T00:28:22;1.70;;;1.60;;
18455;SDS011;9357;49.900;8.208;2022-10-16T00:29:54;2.00;;;1.90;;
18455;SDS011;9357;49.900;8.208;2022-10-16T00:31:28;1.93;;;1.80;;
18455;SDS011;9357;49.900;8.208;2022-10-16T00:33:01;1.90;;;1.80;;
18455;SDS011;9357;49.900;8.208;2022-10-16T00:34:33;1.90;;;1.80;;
18455;SDS011;9357;49.900;8.208;2022-10-16T00:36:06;2.30;;;2.10;;
18455;SDS011;9357;49.900;8.208;2022-10-16T00:37:41;1.50;;;1.40;;
18455;SDS011;9357;49.900;8.208;2022-10-16T00:39:14;2.63;;;1.70;;
18455;SDS011;9357;49.900;8.208;2022-10-16T00:40:47;1.63;;;1.53;;
18455;SDS011;9357;49.900;8.208;2022-10-16T00:42:19;1.70;;;1.60;;
18455;SDS011;9357;49.900;8.208;2022-10-16T00:43:52;1.67;;;1.60;;
18455;SDS011;9357;49.900;8.208;2022-10-16T00:45:26;1.87;;;1.77;;
18455;SDS011;9357;49.900;8.208;2022-10-16T00:47:00;1.70;;;1.60;;
18455;SDS011;9357;49.900;8.208;2022-10-16T00:48:32;1.70;;;1.60;;
18455;SDS011;9357;49.900;8.208;2022-10-16T00:50:06;1.83;;;1.73;;
18455;SDS011;9357;49.900;8.208;2022-10-16T00:51:42;1.90;;;1.80;;
18455;SDS011;9357;49.900;8.208;2022-10-16T00:53:17;1.67;;;1.57;;
18455;SDS011;9357;49.900;8.208;2022-10-16T00:54:50;1.83;;;1.70;;
18455;SDS011;9357;49.900;8.208;2022-10-16T00:56:25;1.90;;;1.70;;
18455;SDS011;9357;49.900;8.208;2022-10-16T00:57:58;1.93;;;1.60;;
18455;SDS011;9357;49.900;8.208;2022-10-16T00:59:33;1.97;;;1.80;;
18455;SDS011;9357;49.900;8.208;2022-10-16T01:01:07;1.50;;;1.50;;
18455;SDS011;9357;49.900;8.208;2022-10-16T01:02:41;1.80;;;1.60;;
18455;SDS011;9357;49.900;8.208;2022-10-16T01:04:14;1.63;;;1.53;;
18455;SDS011;9357;49.900;8.208;2022-10-16T01:05:49;1.70;;;1.60;;
18455;SDS011;9357;49.900;8.208;2022-10-16T01:07:30;2.53;;;1.77;;
18455;SDS011;9357;49.900;8.208;2022-10-16T01:09:11;1.70;;;1.60;;
18455;SDS011;9357;49.900;8.208;2022-10-16T01:10:50;1.87;;;1.70;;
18455;SDS011;9357;49.900;8.208;2022-10-16T01:12:32;1.73;;;1.63;;
18455;SDS011;9357;49.900;8.208;2022-10-16T01:14:15;2.10;;;1.73;;
18455;SDS011;9357;49.900;8.208;2022-10-16T01:15:55;2.13;;;1.90;;
18455;SDS011;9357;49.900;8.208;2022-10-16T01:17:32;1.90;;;1.80;;
18455;SDS011;9357;49.900;8.208;2022-10-16T01:19:14;1.90;;;1.80;;
18455;SDS011;9357;49.900;8.208;2022-10-16T01:20:52;2.13;;;1.63;;
18455;SDS011;9357;49.900;8.208;2022-10-16T01:22:33;1.80;;;1.60;;
18455;SDS011;9357;49.900;8.208;2022-10-16T01:24:12;1.80;;;1.70;;
18455;SDS011;9357;49.900;8.208;2022-10-16T01:26:11;1.47;;;1.43;;
18455;SDS011;9357;49.900;8.208;2022-10-16T01:27:53;1.90;;;1.80;;
18455;SDS011;9357;49.900;8.208;2022-10-16T01:29:26;2.00;;;1.77;;
18455;SDS011;9357;49.900;8.208;2022-10-16T01:31:05;1.80;;;1.60;;
18455;SDS011;9357;49.900;8.208;2022-10-16T01:32:40;1.70;;;1.60;;
18455;SDS011;9357;49.900;8.208;2022-10-16T01:34:15;2.17;;;1.70;;
18455;SDS011;9357;49.900;8.208;2022-10-16T01:35:52;1.90;;;1.80;;
18455;SDS011;9357;49.900;8.208;2022-10-16T01:37:29;2.03;;;1.83;;
18455;SDS011;9357;49.900;8.208;2022-10-16T01:39:06;1.90;;;1.80;;
18455;SDS011;9357;49.900;8.208;2022-10-16T01:40:44;2.40;;;1.73;;
18455;SDS011;9357;49.900;8.208;2022-10-16T01:42:21;2.47;;;1.80;;
18455;SDS011;9357;49.900;8.208;2022-10-16T01:43:59;1.73;;;1.63;;
18455;SDS011;9357;49.900;8.208;2022-10-16T01:45:35;1.60;;;1.50;;
18455;SDS011;9357;49.900;8.208;2022-10-16T01:47:09;1.50;;;1.40;;
18455;SDS011;9357;49.900;8.208;2022-10-16T01:48:45;1.70;;;1.60;;
18455;SDS011;9357;49.900;8.208;2022-10-16T01:50:18;1.93;;;1.83;;
18455;SDS011;9357;49.900;8.208;2022-10-16T01:51:54;1.60;;;1.50;;
18455;SDS011;9357;49.900;8.208;2022-10-16T01:53:31;2.00;;;1.70;;
18455;SDS011;9357;49.900;8.208;2022-10-16T01:55:06;1.53;;;1.50;;
18455;SDS011;9357;49.900;8.208;2022-10-16T01:56:41;1.90;;;1.80;;
18455;SDS011;9357;49.900;8.208;2022-10-16T01:58:14;2.10;;;1.70;;
18455;SDS011;9357;49.900;8.208;2022-10-16T01:59:50;2.03;;;1.83;;
18455;SDS011;9357;49.900;8.208;2022-10-16T02:01:28;1.80;;;1.70;;
18455;SDS011;9357;49.900;8.208;2022-10-16T02:03:03;1.70;;;1.60;;
18455;SDS011;9357;49.900;8.208;2022-10-16T02:04:38;2.30;;;1.60;;
18455;SDS011;9357;49.900;8.208;2022-10-16T02:06:14;2.00;;;1.63;;
18455;SDS011;9357;49.900;8.208;2022-10-16T02:07:47;1.97;;;1.77;;
18455;SDS011;9357;49.900;8.208;2022-10-16T02:09:20;2.67;;;1.60;;
18455;SDS011;9357;49.900;8.208;2022-10-16T02:10:54;1.53;;;1.43;;
18455;SDS011;9357;49.900;8.208;2022-10-16T02:12:27;1.50;;;1.40;;
18455;SDS011;9357;49.900;8.208;2022-10-16T02:14:04;1.50;;;1.30;;
18455;SDS011;9357;49.900;8.208;2022-10-16T02:15:38;1.67;;;1.57;;
18455;SDS011;9357;49.900;8.208;2022-10-16T02:17:12;1.57;;;1.40;;
18455;SDS011;9357;49.900;8.208;2022-10-16T02:18:46;1.43;;;1.33;;
18455;SDS011;9357;49.900;8.208;2022-10-16T02:20:19;1.60;;;1.50;;
18455;SDS011;9357;49.900;8.208;2022-10-16T02:21:58;1.30;;;1.20;;
18455;SDS011;9357;49.900;8.208;2022-10-16T02:23:35;1.57;;;1.40;;
18455;SDS011;9357;49.900;8.208;2022-10-16T02:25:17;1.30;;;1.20;;
18455;SDS011;9357;49.900;8.208;2022-10-16T02:26:56;1.47;;;1.37;;
18455;SDS011;9357;49.900;8.208;2022-10-16T02:28:35;1.27;;;1.10;;
18455;SDS011;9357;49.900;8.208;2022-10-16T02:30:13;1.20;;;1.20;;
18455;SDS011;9357;49.900;8.208;2022-10-16T02:31:53;2.17;;;1.10;;
18455;SDS011;9357;49.900;8.208;2022-10-16T02:33:30;1.20;;;1.20;;
18455;SDS011;9357;49.900;8.208;2022-10-16T02:35:05;1.20;;;1.20;;
18455;SDS011;9357;49.900;8.208;2022-10-16T02:36:39;1.40;;;1.13;;
18455;SDS011;9357;49.900;8.208;2022-10-16T02:38:14;1.40;;;1.30;;
18455;SDS011;9357;49.900;8.208;2022-10-16T02:39:48;2.10;;;1.20;;
18455;SDS011;9357;49.900;8.208;2022-10-16T02:41:21;1.70;;;1.23;;
18455;SDS011;9357;49.900;8.208;2022-10-16T02:42:55;1.30;;;1.20;;
18455;SDS011;9357;49.900;8.208;2022-10-16T02:44:28;1.70;;;1.20;;
18455;SDS011;9357;49.900;8.208;2022-10-16T02:46:01;2.70;;;1.40;;
18455;SDS011;9357;49.900;8.208;2022-10-16T02:47:35;1.83;;;1.73;;
18455;SDS011;9357;49.900;8.208;2022-10-16T02:49:08;1.60;;;1.50;;
18455;SDS011;9357;49.900;8.208;2022-10-16T02:50:39;1.60;;;1.50;;
18455;SDS011;9357;49.900;8.208;2022-10-16T02:52:12;2.20;;;1.50;;
18455;SDS011;9357;49.900;8.208;2022-10-16T02:53:45;1.87;;;1.60;;
18455;SDS011;9357;49.900;8.208;2022-10-16T02:55:18;2.77;;;1.40;;
18455;SDS011;9357;49.900;8.208;2022-10-16T02:56:49;1.87;;;1.60;;
18455;SDS011;9357;49.900;8.208;2022-10-16T02:58:22;1.40;;;1.30;;
18455;SDS011;9357;49.900;8.208;2022-10-16T02:59:55;1.60;;;1.50;;
18455;SDS011;9357;49.900;8.208;2022-10-16T03:01:27;1.43;;;1.37;;
18455;SDS011;9357;49.900;8.208;2022-10-16T03:03:01;2.10;;;1.40;;
18455;SDS011;9357;49.900;8.208;2022-10-16T03:04:34;1.40;;;1.30;;
18455;SDS011;9357;49.900;8.208;2022-10-16T03:06:07;1.67;;;1.57;;
18455;SDS011;9357;49.900;8.208;2022-10-16T03:07:40;2.07;;;1.37;;
18455;SDS011;9357;49.900;8.208;2022-10-16T03:09:11;1.50;;;1.40;;
18455;SDS011;9357;49.900;8.208;2022-10-16T03:10:44;1.47;;;1.40;;
18455;SDS011;9357;49.900;8.208;2022-10-16T03:12:17;1.53;;;1.30;;
18455;SDS011;9357;49.900;8.208;2022-10-16T03:13:49;1.40;;;1.30;;
18455;SDS011;9357;49.900;8.208;2022-10-16T03:15:21;1.20;;;1.20;;
18455;SDS011;9357;49.900;8.208;2022-10-16T03:16:54;1.43;;;1.30;;
18455;SDS011;9357;49.900;8.208;2022-10-16T03:18:28;1.77;;;1.33;;
18455;SDS011;9357;49.900;8.208;2022-10-16T03:20:01;2.20;;;1.40;;
18455;SDS011;9357;49.900;8.208;2022-10-16T03:21:34;1.30;;;1.20;;
18455;SDS011;9357;49.900;8.208;2022-10-16T03:23:07;1.90;;;1.30;;
18455;SDS011;9357;49.900;8.208;2022-10-16T03:24:40;3.07;;;1.20;;
18455;SDS011;9357;49.900;8.208;2022-10-16T03:26:12;1.17;;;1.10;;
18455;SDS011;9357;49.900;8.208;2022-10-16T03:27:44;1.20;;;1.10;;
18455;SDS011;9357;49.900;8.208;2022-10-16T03:29:17;1.77;;;1.20;;
18455;SDS011;9357;49.900;8.208;2022-10-16T03:30:50;1.10;;;1.10;;
18455;SDS011;9357;49.900;8.208;2022-10-16T03:32:22;2.47;;;1.10;;
18455;SDS011;9357;49.900;8.208;2022-10-16T03:33:57;1.20;;;1.20;;
18455;SDS011;9357;49.900;8.208;2022-10-16T03:35:29;1.13;;;1.10;;
18455;SDS011;9357;49.900;8.208;2022-10-16T03:37:02;1.00;;;1.00;;
18455;SDS011;9357;49.900;8.208;2022-10-16T03:38:35;1.00;;;1.00;;
18455;SDS011;9357;49.900;8.208;2022-10-16T03:40:08;0.90;;;0.90;;
18455;SDS011;9357;49.900;8.208;2022-10-16T03:41:41;1.10;;;1.00;;
18455;SDS011;9357;49.900;8.208;2022-10-16T03:43:13;0.80;;;0.80;;
18455;SDS011;9357;49.900;8.208;2022-10-16T03:44:50;1.60;;;0.87;;
18455;SDS011;9357;49.900;8.208;2022-10-16T03:46:23;0.80;;;0.80;;
18455;SDS011;9357;49.900;8.208;2022-10-16T03:47:56;1.33;;;0.80;;
18455;SDS011;9357;49.900;8.208;2022-10-16T03:49:30;0.77;;;0.73;;
18455;SDS011;9357;49.900;8.208;2022-10-16T03:51:02;0.93;;;0.90;;
18455;SDS011;9357;49.900;8.208;2022-10-16T03:52:35;1.73;;;0.70;;
18455;SDS011;9357;49.900;8.208;2022-10-16T03:54:09;1.50;;;0.80;;
18455;SDS011;9357;49.900;8.208;2022-10-16T03:55:42;0.90;;;0.70;;
18455;SDS011;9357;49.900;8.208;2022-10-16T03:57:15;1.20;;;0.87;;
18455;SDS011;9357;49.900;8.208;2022-10-16T03:58:47;1.50;;;0.70;;
18455;SDS011;9357;49.900;8.208;2022-10-16T04:00:20;1.00;;;0.90;;
18455;SDS011;9357;49.900;8.208;2022-10-16T04:01:53;1.17;;;0.70;;
18455;SDS011;9357;49.900;8.208;2022-10-16T04:03:26;0.90;;;0.90;;
18455;SDS011;9357;49.900;8.208;2022-10-16T04:04:59;1.63;;;0.90;;
18455;SDS011;9357;49.900;8.208;2022-10-16T04:06:31;0.80;;;0.80;;
18455;SDS011;9357;49.900;8.208;2022-10-16T04:08:04;0.80;;;0.80;;
18455;SDS011;9357;49.900;8.208;2022-10-16T04:09:37;0.90;;;0.90;;
18455;SDS011;9357;49.900;8.208;2022-10-16T04:11:10;1.07;;;0.83;;
18455;SDS011;9357;49.900;8.208;2022-10-16T04:12:43;1.40;;;0.90;;
18455;SDS011;9357;49.900;8.208;2022-10-16T04:14:15;1.83;;;0.90;;
18455;SDS011;9357;49.900;8.208;2022-10-16T04:15:47;0.80;;;0.80;;
18455;SDS011;9357;49.900;8.208;2022-10-16T04:17:20;0.90;;;0.90;;
18455;SDS011;9357;49.900;8.208;2022-10-16T04:18:52;2.77;;;1.03;;
18455;SDS011;9357;49.900;8.208;2022-10-16T04:20:26;1.00;;;1.00;;
18455;SDS011;9357;49.900;8.208;2022-10-16T04:21:58;1.23;;;1.13;;
18455;SDS011;9357;49.900;8.208;2022-10-16T04:23:31;1.20;;;1.20;;
18455;SDS011;9357;49.900;8.208;2022-10-16T04:25:05;1.00;;;1.00;;
18455;SDS011;9357;49.900;8.208;2022-10-16T04:26:38;1.10;;;1.03;;
18455;SDS011;9357;49.900;8.208;2022-10-16T04:28:10;3.13;;;1.10;;
18455;SDS011;9357;49.900;8.208;2022-10-16T04:29:43;1.23;;;1.20;;
18455;SDS011;9357;49.900;8.208;2022-10-16T04:31:16;1.00;;;1.00;;
18455;SDS011;9357;49.900;8.208;2022-10-16T04:32:49;1.30;;;1.20;;
18455;SDS011;9357;49.900;8.208;2022-10-16T04:34:21;2.60;;;1.10;;
18455;SDS011;9357;49.900;8.208;2022-10-16T04:35:59;1.30;;;1.20;;
18455;SDS011;9357;49.900;8.208;2022-10-16T04:37:33;3.03;;;1.30;;
18455;SDS011;9357;49.900;8.208;2022-10-16T04:39:05;1.53;;;1.23;;
18455;SDS011;9357;49.900;8.208;2022-10-16T04:40:38;1.23;;;1.07;;
18455;SDS011;9357;49.900;8.208;2022-10-16T04:42:11;1.30;;;1.20;;
18455;SDS011;9357;49.900;8.208;2022-10-16T04:43:43;1.67;;;1.50;;
18455;SDS011;9357;49.900;8.208;2022-10-16T04:45:15;1.43;;;1.10;;
18455;SDS011;9357;49.900;8.208;2022-10-16T04:46:50;1.40;;;1.30;;
18455;SDS011;9357;49.900;8.208;2022-10-16T04:48:23;1.27;;;1.27;;
18455;SDS011;9357;49.900;8.208;2022-10-16T04:49:56;2.23;;;1.37;;
18455;SDS011;9357;49.900;8.208;2022-10-16T04:51:31;1.50;;;1.40;;
18455;SDS011;9357;49.900;8.208;2022-10-16T04:53:04;1.93;;;1.30;;
18455;SDS011;9357;49.900;8.208;2022-10-16T04:54:37;1.50;;;1.40;;
18455;SDS011;9357;49.900;8.208;2022-10-16T04:56:08;1.83;;;1.40;;
18455;SDS011;9357;49.900;8.208;2022-10-16T04:57:41;1.50;;;1.40;;
18455;SDS011;9357;49.900;8.208;2022-10-16T04:59:13;2.37;;;1.20;;
18455;SDS011;9357;49.900;8.208;2022-10-16T05:00:46;1.50;;;1.40;;
18455;SDS011;9357;49.900;8.208;2022-10-16T05:02:19;2.00;;;1.27;;
18455;SDS011;9357;49.900;8.208;2022-10-16T05:03:52;1.70;;;1.33;;
18455;SDS011;9357;49.900;8.208;2022-10-16T05:05:25;1.70;;;1.30;;
18455;SDS011;9357;49.900;8.208;2022-10-16T05:06:59;1.40;;;1.30;;
18455;SDS011;9357;49.900;8.208;2022-10-16T05:08:31;1.50;;;1.40;;
18455;SDS011;9357;49.900;8.208;2022-10-16T05:10:05;1.30;;;1.20;;
18455;SDS011;9357;49.900;8.208;2022-10-16T05:11:38;1.40;;;1.30;;
18455;SDS011;9357;49.900;8.208;2022-10-16T05:13:10;2.87;;;1.43;;
18455;SDS011;9357;49.900;8.208;2022-10-16T05:14:43;1.30;;;1.20;;
18455;SDS011;9357;49.900;8.208;2022-10-16T05:16:16;1.37;;;1.27;;
18455;SDS011;9357;49.900;8.208;2022-10-16T05:17:51;1.83;;;1.30;;
18455;SDS011;9357;49.900;8.208;2022-10-16T05:19:24;1.43;;;1.30;;
18455;SDS011;9357;49.900;8.208;2022-10-16T05:20:58;2.40;;;1.40;;
18455;SDS011;9357;49.900;8.208;2022-10-16T05:22:32;1.50;;;1.40;;
18455;SDS011;9357;49.900;8.208;2022-10-16T05:24:05;1.30;;;1.20;;
18455;SDS011;9357;49.900;8.208;2022-10-16T05:25:38;3.37;;;1.57;;
18455;SDS011;9357;49.900;8.208;2022-10-16T05:27:11;1.43;;;1.37;;
18455;SDS011;9357;49.900;8.208;2022-10-16T05:28:49;1.43;;;1.30;;
18455;SDS011;9357;49.900;8.208;2022-10-16T05:30:22;2.10;;;1.50;;
18455;SDS011;9357;49.900;8.208;2022-10-16T05:31:55;1.27;;;1.23;;
18455;SDS011;9357;49.900;8.208;2022-10-16T05:33:28;1.10;;;1.10;;
18455;SDS011;9357;49.900;8.208;2022-10-16T05:35:01;1.27;;;1.17;;
18455;SDS011;9357;49.900;8.208;2022-10-16T05:36:36;1.53;;;1.10;;
18455;SDS011;9357;49.900;8.208;2022-10-16T05:38:10;1.00;;;1.00;;
18455;SDS011;9357;49.900;8.208;2022-10-16T05:39:43;0.90;;;0.90;;
18455;SDS011;9357;49.900;8.208;2022-10-16T05:41:15;0.83;;;0.80;;
18455;SDS011;9357;49.900;8.208;2022-10-16T05:42:54;1.10;;;1.10;;
18455;SDS011;9357;49.900;8.208;2022-10-16T05:44:27;0.90;;;0.90;;
18455;SDS011;9357;49.900;8.208;2022-10-16T05:46:02;1.17;;;1.00;;
18455;SDS011;9357;49.900;8.208;2022-10-16T05:47:36;0.90;;;0.90;;
18455;SDS011;9357;49.900;8.208;2022-10-16T05:49:09;2.53;;;1.30;;
18455;SDS011;9357;49.900;8.208;2022-10-16T05:50:41;1.60;;;1.10;;
18455;SDS011;9357;49.900;8.208;2022-10-16T05:52:14;1.40;;;1.03;;
18455;SDS011;9357;49.900;8.208;2022-10-16T05:53:48;0.90;;;0.90;;
18455;SDS011;9357;49.900;8.208;2022-10-16T05:55:21;1.07;;;1.07;;
18455;SDS011;9357;49.900;8.208;2022-10-16T05:56:53;1.60;;;1.50;;
18455;SDS011;9357;49.900;8.208;2022-10-16T05:58:28;1.20;;;1.20;;
18455;SDS011;9357;49.900;8.208;2022-10-16T06:00:02;2.30;;;1.80;;
18455;SDS011;9357;49.900;8.208;2022-10-16T06:01:36;2.03;;;1.80;;
18455;SDS011;9357;49.900;8.208;2022-10-16T06:03:08;1.70;;;1.60;;
18455;SDS011;9357;49.900;8.208;2022-10-16T06:04:41;1.67;;;1.57;;
18455;SDS011;9357;49.900;8.208;2022-10-16T06:06:15;2.20;;;1.60;;
18455;SDS011;9357;49.900;8.208;2022-10-16T06:07:48;1.53;;;1.40;;
18455;SDS011;9357;49.900;8.208;2022-10-16T06:09:23;2.07;;;1.40;;
18455;SDS011;9357;49.900;8.208;2022-10-16T06:11:01;1.43;;;1.20;;
18455;SDS011;9357;49.900;8.208;2022-10-16T06:12:35;1.30;;;1.20;;
18455;SDS011;9357;49.900;8.208;2022-10-16T06:14:08;0.90;;;0.90;;
18455;SDS011;9357;49.900;8.208;2022-10-16T06:15:41;1.00;;;1.00;;
18455;SDS011;9357;49.900;8.208;2022-10-16T06:17:14;1.10;;;1.10;;
18455;SDS011;9357;49.900;8.208;2022-10-16T06:18:47;0.90;;;0.83;;
18455;SDS011;9357;49.900;8.208;2022-10-16T06:20:22;0.90;;;0.90;;
18455;SDS011;9357;49.900;8.208;2022-10-16T06:21:55;1.20;;;1.10;;
18455;SDS011;9357;49.900;8.208;2022-10-16T06:23:29;1.10;;;1.00;;
18455;SDS011;9357;49.900;8.208;2022-10-16T06:25:03;1.63;;;1.00;;
18455;SDS011;9357;49.900;8.208;2022-10-16T06:26:36;0.97;;;0.97;;
18455;SDS011;9357;49.900;8.208;2022-10-16T06:28:10;1.10;;;1.00;;
18455;SDS011;9357;49.900;8.208;2022-10-16T06:29:41;1.53;;;1.10;;
18455;SDS011;9357;49.900;8.208;2022-10-16T06:31:16;0.80;;;0.80;;
18455;SDS011;9357;49.900;8.208;2022-10-16T06:32:49;1.00;;;1.00;;
18455;SDS011;9357;49.900;8.208;2022-10-16T06:34:22;2.40;;;0.97;;
18455;SDS011;9357;49.900;8.208;2022-10-16T06:35:59;1.00;;;1.00;;
18455;SDS011;9357;49.900;8.208;2022-10-16T06:37:31;0.90;;;0.90;;
18455;SDS011;9357;49.900;8.208;2022-10-16T06:39:04;0.80;;;0.80;;
18455;SDS011;9357;49.900;8.208;2022-10-16T06:40:39;0.83;;;0.83;;
18455;SDS011;9357;49.900;8.208;2022-10-16T06:42:12;0.70;;;0.70;;
18455;SDS011;9357;49.900;8.208;2022-10-16T06:43:44;1.03;;;0.80;;
18455;SDS011;9357;49.900;8.208;2022-10-16T06:45:17;1.70;;;0.73;;
18455;SDS011;9357;49.900;8.208;2022-10-16T06:46:49;1.00;;;1.00;;
18455;SDS011;9357;49.900;8.208;2022-10-16T06:48:22;2.17;;;0.80;;
18455;SDS011;9357;49.900;8.208;2022-10-16T06:49:55;0.97;;;0.87;;
18455;SDS011;9357;49.900;8.208;2022-10-16T06:51:27;1.00;;;0.87;;
18455;SDS011;9357;49.900;8.208;2022-10-16T06:53:00;1.33;;;1.00;;
18455;SDS011;9357;49.900;8.208;2022-10-16T06:54:33;0.83;;;0.83;;
18455;SDS011;9357;49.900;8.208;2022-10-16T06:56:14;1.10;;;0.80;;
18455;SDS011;9357;49.900;8.208;2022-10-16T06:57:48;0.80;;;0.80;;
18455;SDS011;9357;49.900;8.208;2022-10-16T06:59:21;1.53;;;0.73;;
18455;SDS011;9357;49.900;8.208;2022-10-16T07:00:55;1.17;;;1.03;;
18455;SDS011;9357;49.900;8.208;2022-10-16T07:02:28;1.03;;;0.80;;
18455;SDS011;9357;49.900;8.208;2022-10-16T07:04:01;1.30;;;1.20;;
18455;SDS011;9357;49.900;8.208;2022-10-16T07:05:36;1.50;;;1.40;;
18455;SDS011;9357;49.900;8.208;2022-10-16T07:07:09;1.57;;;1.47;;
18455;SDS011;9357;49.900;8.208;2022-10-16T07:08:43;2.20;;;1.30;;
18455;SDS011;9357;49.900;8.208;2022-10-16T07:10:17;1.33;;;1.10;;
18455;SDS011;9357;49.900;8.208;2022-10-16T07:11:51;1.23;;;1.00;;
18455;SDS011;9357;49.900;8.208;2022-10-16T07:13:26;2.17;;;1.07;;
18455;SDS011;9357;49.900;8.208;2022-10-16T07:14:58;0.80;;;0.80;;
18455;SDS011;9357;49.900;8.208;2022-10-16T07:16:31;1.87;;;1.17;;
18455;SDS011;9357;49.900;8.208;2022-10-16T07:18:03;1.90;;;1.10;;
18455;SDS011;9357;49.900;8.208;2022-10-16T07:19:36;1.90;;;1.27;;
18455;SDS011;9357;49.900;8.208;2022-10-16T07:21:09;1.10;;;1.00;;
18455;SDS011;9357;49.900;8.208;2022-10-16T07:22:43;3.37;;;1.73;;
18455;SDS011;9357;49.900;8.208;2022-10-16T07:24:16;1.93;;;1.63;;
18455;SDS011;9357;49.900;8.208;2022-10-16T07:25:53;1.93;;;1.83;;
18455;SDS011;9357;49.900;8.208;2022-10-16T07:27:28;1.83;;;1.60;;
18455;SDS011;9357;49.900;8.208;2022-10-16T07:29:01;1.80;;;1.60;;
18455;SDS011;9357;49.900;8.208;2022-10-16T07:30:34;1.50;;;1.40;;
18455;SDS011;9357;49.900;8.208;2022-10-16T07:32:08;2.00;;;1.90;;
18455;SDS011;9357;49.900;8.208;2022-10-16T07:33:41;4.13;;;2.37;;
18455;SDS011;9357;49.900;8.208;2022-10-16T07:35:15;3.30;;;2.30;;
18455;SDS011;9357;49.900;8.208;2022-10-16T07:36:48;2.43;;;2.23;;
18455;SDS011;9357;49.900;8.208;2022-10-16T07:38:21;3.33;;;1.70;;
18455;SDS011;9357;49.900;8.208;2022-10-16T07:39:54;1.60;;;1.50;;
18455;SDS011;9357;49.900;8.208;2022-10-16T07:41:27;2.17;;;1.43;;
18455;SDS011;9357;49.900;8.208;2022-10-16T07:43:01;1.00;;;1.00;;
18455;SDS011;9357;49.900;8.208;2022-10-16T07:44:36;2.03;;;1.80;;
18455;SDS011;9357;49.900;8.208;2022-10-16T07:46:09;1.60;;;1.50;;
18455;SDS011;9357;49.900;8.208;2022-10-16T07:47:41;1.90;;;1.80;;
18455;SDS011;9357;49.900;8.208;2022-10-16T07:49:14;2.13;;;1.60;;
18455;SDS011;9357;49.900;8.208;2022-10-16T07:50:47;1.73;;;1.63;;
18455;SDS011;9357;49.900;8.208;2022-10-16T07:52:19;1.57;;;1.40;;
18455;SDS011;9357;49.900;8.208;2022-10-16T07:53:52;3.27;;;1.43;;
18455;SDS011;9357;49.900;8.208;2022-10-16T07:55:24;1.50;;;1.40;;
18455;SDS011;9357;49.900;8.208;2022-10-16T07:56:56;3.30;;;1.40;;
18455;SDS011;9357;49.900;8.208;2022-10-16T07:58:31;1.13;;;1.13;;
18455;SDS011;9357;49.900;8.208;2022-10-16T08:00:05;1.53;;;1.33;;
18455;SDS011;9357;49.900;8.208;2022-10-16T08:01:38;1.50;;;1.40;;
18455;SDS011;9357;49.900;8.208;2022-10-16T08:03:13;1.83;;;1.50;;
18455;SDS011;9357;49.900;8.208;2022-10-16T08:04:46;2.47;;;1.50;;
18455;SDS011;9357;49.900;8.208;2022-10-16T08:06:19;2.03;;;1.40;;
18455;SDS011;9357;49.900;8.208;2022-10-16T08:07:58;2.43;;;1.50;;
18455;SDS011;9357;49.900;8.208;2022-10-16T08:09:30;1.63;;;1.20;;
18455;SDS011;9357;49.900;8.208;2022-10-16T08:11:03;1.80;;;1.40;;
18455;SDS011;9357;49.900;8.208;2022-10-16T08:12:36;3.53;;;1.60;;
18455;SDS011;9357;49.900;8.208;2022-10-16T08:14:10;2.20;;;2.10;;
18455;SDS011;9357;49.900;8.208;2022-10-16T08:15:43;3.67;;;3.10;;
18455;SDS011;9357;49.900;8.208;2022-10-16T08:17:16;3.17;;;2.97;;
18455;SDS011;9357;49.900;8.208;2022-10-16T08:18:49;3.73;;;3.43;;
18455;SDS011;9357;49.900;8.208;2022-10-16T08:20:22;3.93;;;3.60;;
18455;SDS011;9357;49.900;8.208;2022-10-16T08:21:55;4.10;;;3.53;;
18455;SDS011;9357;49.900;8.208;2022-10-16T08:23:28;3.77;;;3.47;;
18455;SDS011;9357;49.900;8.208;2022-10-16T08:25:01;3.40;;;3.10;;
18455;SDS011;9357;49.900;8.208;2022-10-16T08:26:34;3.20;;;2.87;;
18455;SDS011;9357;49.900;8.208;2022-10-16T08:28:08;2.80;;;2.60;;
18455;SDS011;9357;49.900;8.208;2022-10-16T08:29:43;3.70;;;3.00;;
18455;SDS011;9357;49.900;8.208;2022-10-16T08:31:16;3.83;;;2.97;;
18455;SDS011;9357;49.900;8.208;2022-10-16T08:32:49;2.93;;;2.63;;
18455;SDS011;9357;49.900;8.208;2022-10-16T08:34:22;3.30;;;3.10;;
18455;SDS011;9357;49.900;8.208;2022-10-16T08:35:54;3.10;;;2.90;;
18455;SDS011;9357;49.900;8.208;2022-10-16T08:37:29;3.10;;;2.87;;
18455;SDS011;9357;49.900;8.208;2022-10-16T08:39:02;2.77;;;2.57;;
18455;SDS011;9357;49.900;8.208;2022-10-16T08:40:35;2.80;;;2.60;;
18455;SDS011;9357;49.900;8.208;2022-10-16T08:42:15;3.20;;;3.00;;
18455;SDS011;9357;49.900;8.208;2022-10-16T08:44:09;3.00;;;2.80;;
18455;SDS011;9357;49.900;8.208;2022-10-16T08:46:06;5.17;;;2.83;;
18455;SDS011;9357;49.900;8.208;2022-10-16T08:47:49;3.30;;;3.00;;
18455;SDS011;9357;49.900;8.208;2022-10-16T08:49:28;3.60;;;2.97;;
18455;SDS011;9357;49.900;8.208;2022-10-16T08:51:03;4.10;;;2.80;;
18455;SDS011;9357;49.900;8.208;2022-10-16T08:52:39;2.67;;;2.40;;
18455;SDS011;9357;49.900;8.208;2022-10-16T08:54:21;2.80;;;2.50;;
18455;SDS011;9357;49.900;8.208;2022-10-16T08:56:00;2.80;;;2.20;;
18455;SDS011;9357;49.900;8.208;2022-10-16T08:57:33;2.63;;;2.40;;
18455;SDS011;9357;49.900;8.208;2022-10-16T08:59:06;2.50;;;2.30;;
18455;SDS011;9357;49.900;8.208;2022-10-16T09:00:43;3.40;;;2.80;;
18455;SDS011;9357;49.900;8.208;2022-10-16T09:02:22;3.20;;;2.97;;
18455;SDS011;9357;49.900;8.208;2022-10-16T09:04:04;3.30;;;2.80;;
18455;SDS011;9357;49.900;8.208;2022-10-16T09:07:57;3.60;;;3.30;;
18455;SDS011;9357;49.900;8.208;2022-10-16T09:09:47;3.40;;;3.10;;
18455;SDS011;9357;49.900;8.208;2022-10-16T09:11:33;3.23;;;2.93;;
18455;SDS011;9357;49.900;8.208;2022-10-16T09:13:18;4.20;;;3.40;;
18455;SDS011;9357;49.900;8.208;2022-10-16T09:14:58;3.20;;;2.93;;
18455;SDS011;9357;49.900;8.208;2022-10-16T09:16:39;3.00;;;2.70;;
18455;SDS011;9357;49.900;8.208;2022-10-16T09:18:19;4.00;;;3.50;;
18455;SDS011;9357;49.900;8.208;2022-10-16T09:20:08;4.60;;;3.00;;
18455;SDS011;9357;49.900;8.208;2022-10-16T09:21:50;3.20;;;2.90;;
18455;SDS011;9357;49.900;8.208;2022-10-16T09:23:25;2.87;;;2.47;;
18455;SDS011;9357;49.900;8.208;2022-10-16T09:25:04;3.17;;;2.90;;
18455;SDS011;9357;49.900;8.208;2022-10-16T09:26:43;4.43;;;2.30;;
18455;SDS011;9357;49.900;8.208;2022-10-16T09:28:17;2.50;;;2.30;;
18455;SDS011;9357;49.900;8.208;2022-10-16T09:29:50;2.70;;;2.10;;
18455;SDS011;9357;49.900;8.208;2022-10-16T09:31:29;1.67;;;1.57;;
18455;SDS011;9357;49.900;8.208;2022-10-16T09:33:02;2.53;;;1.50;;
18455;SDS011;9357;49.900;8.208;2022-10-16T09:34:37;1.60;;;1.50;;
18455;SDS011;9357;49.900;8.208;2022-10-16T09:36:14;1.20;;;1.10;;
18455;SDS011;9357;49.900;8.208;2022-10-16T09:37:48;1.73;;;1.50;;
18455;SDS011;9357;49.900;8.208;2022-10-16T09:39:23;2.67;;;1.50;;